IDEVL SR01-LICK

Flight info

Callsign IDEVL
Flight time N/A
Altitude 6500
Route NO PLAN
Aircraft PA24/L-SDY/C

Departure

Time N/A
Airport SR01

Arrival

Time 2026-04-08 18:20
Airport Scalea Airport (LICK)
Time Latitude Longitude Altitude Speed Heading
2026-04-08 16:58 37.03038 15.24513 44 ft 0 kts 121°
2026-04-08 17:02 37.03045 15.24519 40 ft 2 kts 301°
2026-04-08 17:02 37.03035 15.24513 44 ft 8 kts 181°
2026-04-08 17:03 37.03019 15.24488 38 ft 0 kts 279°
2026-04-08 17:03 37.03021 15.24465 43 ft 3 kts 207°
2026-04-08 17:04 37.02994 15.24446 41 ft 31 kts 210°
2026-04-08 17:04 37.02608 15.24172 123 ft 79 kts 206°
2026-04-08 17:04 37.02047 15.23826 381 ft 93 kts 206°
2026-04-08 17:04 37.01467 15.23503 749 ft 93 kts 210°
2026-04-08 17:05 37.01078 15.22869 1097 ft 94 kts 252°
2026-04-08 17:05 37.01102 15.22082 1455 ft 93 kts 300°
2026-04-08 17:05 37.01613 15.21587 1760 ft 95 kts 329°
2026-04-08 17:05 37.02227 15.21233 2007 ft 103 kts 340°
2026-04-08 17:06 37.02916 15.21018 2323 ft 100 kts 347°
2026-04-08 17:06 37.03619 15.21042 2616 ft 102 kts 355°
2026-04-08 17:06 37.04259 15.20677 2871 ft 102 kts 308°
2026-04-08 17:06 37.04523 15.19928 3255 ft 91 kts 282°
2026-04-08 17:07 37.04649 15.19131 3519 ft 97 kts 280°
2026-04-08 17:07 37.04756 15.18227 3563 ft 122 kts 281°
2026-04-08 17:07 37.04929 15.17115 3587 ft 135 kts 285°
2026-04-08 17:07 37.05204 15.15933 3556 ft 146 kts 290°
2026-04-08 17:08 37.05584 15.14734 3578 ft 151 kts 294°
2026-04-08 17:08 37.06040 15.13531 3576 ft 155 kts 296°
2026-04-08 17:08 37.06523 15.12324 3573 ft 155 kts 297°
2026-04-08 17:08 37.07008 15.11116 3566 ft 155 kts 296°
2026-04-08 17:09 37.07470 15.09900 3568 ft 155 kts 295°
2026-04-08 17:09 37.07895 15.08659 3559 ft 155 kts 292°
2026-04-08 17:09 37.08374 15.07480 3558 ft 154 kts 303°
2026-04-08 17:09 37.09097 15.06499 3572 ft 154 kts 321°
2026-04-08 17:10 37.10038 15.05851 3573 ft 155 kts 338°
2026-04-08 17:10 37.11093 15.05569 3568 ft 157 kts 351°
2026-04-08 17:10 37.12192 15.05541 3573 ft 159 kts 359°
2026-04-08 17:10 37.13301 15.05613 3563 ft 161 kts 359°
2026-04-08 17:11 37.14423 15.05638 3554 ft 161 kts 355°
2026-04-08 17:11 37.15534 15.05503 3568 ft 161 kts 348°
2026-04-08 17:11 37.16258 15.05309 3562 ft 161 kts 342°
2026-04-08 17:11 37.17301 15.04861 3560 ft 156 kts 335°
2026-04-08 17:12 37.18294 15.04326 3563 ft 155 kts 334°
2026-04-08 17:12 37.19280 15.03777 3568 ft 155 kts 333°
2026-04-08 17:12 37.20262 15.03205 3568 ft 157 kts 333°
2026-04-08 17:12 37.21267 15.02641 3568 ft 159 kts 334°
2026-04-08 17:13 37.22296 15.02125 3565 ft 159 kts 337°
2026-04-08 17:13 37.23347 15.01666 3565 ft 162 kts 339°
2026-04-08 17:13 37.24425 15.01233 3564 ft 164 kts 341°
2026-04-08 17:13 37.25517 15.00842 3562 ft 163 kts 343°
2026-04-08 17:14 37.26613 15.00483 3560 ft 163 kts 343°
2026-04-08 17:14 37.27704 15.00117 3562 ft 162 kts 345°
2026-04-08 17:14 37.28821 14.99938 3567 ft 163 kts 358°
2026-04-08 17:14 37.29945 15.00154 3565 ft 165 kts 15°
2026-04-08 17:15 37.30983 15.00771 3562 ft 166 kts 30°
2026-04-08 17:15 37.31888 15.01674 3564 ft 167 kts 41°
2026-04-08 17:15 37.32694 15.02727 3564 ft 168 kts 46°
2026-04-08 17:15 37.33476 15.03822 3565 ft 169 kts 46°
2026-04-08 17:16 37.34295 15.04881 3559 ft 169 kts 41°
2026-04-08 17:16 37.35186 15.05836 3559 ft 168 kts 36°
2026-04-08 17:16 37.36145 15.06666 3557 ft 167 kts 30°
2026-04-08 17:16 37.37159 15.07380 3563 ft 167 kts 25°
2026-04-08 17:17 37.38206 15.08007 3564 ft 167 kts 22°
2026-04-08 17:17 37.39266 15.08597 3566 ft 167 kts 22°
2026-04-08 17:17 37.40322 15.09199 3561 ft 167 kts 22°
2026-04-08 17:17 37.41401 15.09742 3568 ft 167 kts 18°
2026-04-08 17:18 37.42499 15.10206 3567 ft 166 kts 15°
2026-04-08 17:18 37.43587 15.10633 3565 ft 166 kts 15°
2026-04-08 17:18 37.44685 15.11077 3561 ft 166 kts 16°
2026-04-08 17:18 37.45776 15.11551 3561 ft 166 kts 18°
2026-04-08 17:19 37.46861 15.12066 3567 ft 167 kts 19°
2026-04-08 17:19 37.47939 15.12596 3567 ft 166 kts 19°
2026-04-08 17:19 37.49013 15.13128 3560 ft 166 kts 19°
2026-04-08 17:19 37.50084 15.13670 3562 ft 166 kts 20°
2026-04-08 17:20 37.51155 15.14220 3564 ft 166 kts 21°
2026-04-08 17:20 37.52215 15.14795 3561 ft 166 kts 21°
2026-04-08 17:20 37.53278 15.15362 3568 ft 167 kts 20°
2026-04-08 17:20 37.54354 15.15910 3567 ft 166 kts 19°
2026-04-08 17:21 37.55437 15.16423 3566 ft 166 kts 18°
2026-04-08 17:21 37.56529 15.16910 3569 ft 166 kts 19°
2026-04-08 17:21 37.57567 15.17546 3569 ft 166 kts 29°
2026-04-08 17:21 37.58495 15.18418 3569 ft 167 kts 40°
2026-04-08 17:22 37.59294 15.19483 3567 ft 168 kts 49°
2026-04-08 17:22 37.60009 15.20646 3566 ft 168 kts 51°
2026-04-08 17:22 37.60705 15.21834 3568 ft 169 kts 52°
2026-04-08 17:22 37.61398 15.23027 3563 ft 168 kts 51°
2026-04-08 17:23 37.62191 15.24112 3569 ft 168 kts 39°
2026-04-08 17:23 37.63189 15.24868 3570 ft 167 kts 20°
2026-04-08 17:23 37.64312 15.25215 3571 ft 166 kts
2026-04-08 17:23 37.65460 15.25244 3573 ft 164 kts 354°
2026-04-08 17:24 37.67714 15.24841 3570 ft 163 kts 353°
2026-04-08 17:24 37.68845 15.24716 3571 ft 163 kts 359°
2026-04-08 17:24 37.69971 15.24748 3576 ft 162 kts
2026-04-08 17:25 37.71088 15.24953 3577 ft 162 kts 12°
2026-04-08 17:25 37.72177 15.25295 3578 ft 162 kts 17°
2026-04-08 17:25 37.73254 15.25714 3578 ft 161 kts 18°
2026-04-08 17:25 37.74328 15.26134 3578 ft 162 kts 17°
2026-04-08 17:26 37.75406 15.26527 3575 ft 160 kts 15°
2026-04-08 17:26 37.76454 15.26902 3585 ft 157 kts 16°
2026-04-08 17:26 37.77526 15.27222 3588 ft 157 kts 11°
2026-04-08 17:26 37.78600 15.27432 3587 ft 158 kts
2026-04-08 17:27 37.79716 15.27603 3587 ft 160 kts
2026-04-08 17:27 37.80809 15.27742 3587 ft 158 kts
2026-04-08 17:27 37.81910 15.27884 3588 ft 159 kts
2026-04-08 17:27 37.83007 15.28061 3588 ft 158 kts
2026-04-08 17:28 37.84100 15.28285 3587 ft 159 kts 11°
2026-04-08 17:28 37.85178 15.28580 3592 ft 158 kts 11°
2026-04-08 17:28 37.86243 15.28962 3602 ft 161 kts 19°
2026-04-08 17:28 37.87235 15.29615 3597 ft 161 kts 29°
2026-04-08 17:29 37.88116 15.30480 3594 ft 161 kts 40°
2026-04-08 17:29 37.88875 15.31535 3597 ft 162 kts 45°
2026-04-08 17:29 37.89579 15.32655 3597 ft 164 kts 46°
2026-04-08 17:29 37.90305 15.33771 3598 ft 164 kts 45°
2026-04-08 17:30 37.91063 15.34853 3599 ft 164 kts 41°
2026-04-08 17:30 37.91890 15.35847 3598 ft 164 kts 36°
2026-04-08 17:30 37.92778 15.36752 3596 ft 163 kts 32°
2026-04-08 17:30 37.93703 15.37585 3597 ft 163 kts 29°
2026-04-08 17:31 37.94639 15.38385 3597 ft 162 kts 29°
2026-04-08 17:31 37.95567 15.39187 3597 ft 161 kts 29°
2026-04-08 17:31 37.96480 15.40015 3591 ft 162 kts 31°
2026-04-08 17:31 37.97379 15.40889 3593 ft 162 kts 33°
2026-04-08 17:32 37.98250 15.41788 3588 ft 161 kts 34°
2026-04-08 17:32 37.99110 15.42705 3595 ft 163 kts 35°
2026-04-08 17:32 37.99972 15.43634 3595 ft 163 kts 36°
2026-04-08 17:32 38.00831 15.44569 3593 ft 163 kts 36°
2026-04-08 17:33 38.01687 15.45506 3596 ft 163 kts 36°
2026-04-08 17:33 38.02556 15.46437 3597 ft 164 kts 34°
2026-04-08 17:33 38.03439 15.47346 3589 ft 164 kts 34°
2026-04-08 17:33 38.04321 15.48245 3594 ft 163 kts 34°
2026-04-08 17:34 38.05200 15.49142 3594 ft 163 kts 34°
2026-04-08 17:34 38.06086 15.50040 3587 ft 163 kts 34°
2026-04-08 17:34 38.06972 15.50937 3595 ft 163 kts 34°
2026-04-08 17:34 38.07854 15.51836 3584 ft 163 kts 34°
2026-04-08 17:35 38.08732 15.52733 3575 ft 161 kts 34°
2026-04-08 17:35 38.09603 15.53630 3592 ft 162 kts 35°
2026-04-08 17:35 38.10477 15.54528 3592 ft 162 kts 35°
2026-04-08 17:35 38.11346 15.55435 3591 ft 162 kts 35°
2026-04-08 17:36 38.12212 15.56344 3591 ft 162 kts 35°
2026-04-08 17:36 38.13079 15.57255 3594 ft 162 kts 36°
2026-04-08 17:36 38.13948 15.58170 3594 ft 162 kts 35°
2026-04-08 17:36 38.14817 15.59084 3594 ft 162 kts 35°
2026-04-08 17:37 38.15687 15.60000 3594 ft 163 kts 35°
2026-04-08 17:37 38.16549 15.60895 3592 ft 162 kts 35°
2026-04-08 17:37 38.17426 15.61795 3593 ft 162 kts 34°
2026-04-08 17:37 38.18300 15.62695 3594 ft 162 kts 34°
2026-04-08 17:38 38.19177 15.63595 3594 ft 162 kts 34°
2026-04-08 17:38 38.20053 15.64499 3591 ft 160 kts 36°
2026-04-08 17:38 38.20865 15.65447 3598 ft 157 kts 38°
2026-04-08 17:38 38.21641 15.66399 3597 ft 155 kts 38°
2026-04-08 17:39 38.22464 15.67284 3595 ft 154 kts 33°
2026-04-08 17:39 38.23338 15.68113 3597 ft 159 kts 29°
2026-04-08 17:39 38.24241 15.68895 3601 ft 155 kts 31°
2026-04-08 17:39 38.25105 15.69706 3603 ft 154 kts 30°
2026-04-08 17:40 38.25962 15.70520 3602 ft 156 kts 30°
2026-04-08 17:40 38.26848 15.71299 3598 ft 156 kts 30°
2026-04-08 17:40 38.27715 15.72106 3602 ft 154 kts 33°
2026-04-08 17:40 38.28534 15.72986 3596 ft 157 kts 38°
2026-04-08 17:41 38.29337 15.73971 3601 ft 162 kts 40°
2026-04-08 17:41 38.30149 15.74972 3600 ft 162 kts 39°
2026-04-08 17:41 38.30973 15.75948 3601 ft 162 kts 38°
2026-04-08 17:41 38.31818 15.76897 3602 ft 162 kts 36°
2026-04-08 17:42 38.32686 15.77808 3607 ft 161 kts 34°
2026-04-08 17:42 38.33565 15.78693 3607 ft 161 kts 34°
2026-04-08 17:42 38.34451 15.79566 3606 ft 161 kts 33°
2026-04-08 17:42 38.35339 15.80437 3605 ft 161 kts 33°
2026-04-08 17:43 38.36222 15.81317 3612 ft 161 kts 34°
2026-04-08 17:43 38.37090 15.82199 3610 ft 162 kts 34°
2026-04-08 17:43 38.37960 15.83105 3612 ft 162 kts 36°
2026-04-08 17:43 38.38822 15.84023 3613 ft 162 kts 36°
2026-04-08 17:44 38.39686 15.84944 3602 ft 162 kts 36°
2026-04-08 17:44 38.40549 15.85866 3617 ft 162 kts 36°
2026-04-08 17:44 38.41415 15.86786 3606 ft 162 kts 36°
2026-04-08 17:44 38.42283 15.87705 3616 ft 162 kts 36°
2026-04-08 17:45 38.43150 15.88624 3614 ft 162 kts 35°
2026-04-08 17:45 38.44018 15.89536 3616 ft 162 kts 35°
2026-04-08 17:45 38.44928 15.90372 3619 ft 161 kts 26°
2026-04-08 17:45 38.45971 15.90899 3588 ft 161 kts
2026-04-08 17:46 38.47071 15.91002 3601 ft 157 kts 353°
2026-04-08 17:46 38.48139 15.90755 3610 ft 155 kts 343°
2026-04-08 17:46 38.49154 15.90339 3610 ft 151 kts 339°
2026-04-08 17:46 38.50145 15.89904 3614 ft 150 kts 340°
2026-04-08 17:47 38.51149 15.89536 3615 ft 150 kts 344°
2026-04-08 17:47 38.52179 15.89305 3617 ft 151 kts 351°
2026-04-08 17:47 38.53230 15.89233 3615 ft 151 kts 356°
2026-04-08 17:47 38.54287 15.89300 3610 ft 153 kts
2026-04-08 17:48 38.55345 15.89453 3615 ft 153 kts
2026-04-08 17:48 38.56404 15.89627 3614 ft 153 kts
2026-04-08 17:48 38.57463 15.89770 3615 ft 153 kts
2026-04-08 17:48 38.58520 15.89852 3607 ft 150 kts 359°
2026-04-08 17:49 38.59560 15.89875 3615 ft 151 kts 357°
2026-04-08 17:49 38.60612 15.89849 3617 ft 152 kts 354°
2026-04-08 17:49 38.61672 15.89787 3620 ft 154 kts 354°
2026-04-08 17:49 38.62741 15.89719 3613 ft 153 kts 354°
2026-04-08 17:50 38.63806 15.89659 3612 ft 152 kts 355°
2026-04-08 17:50 38.64863 15.89641 3618 ft 152 kts 357°
2026-04-08 17:50 38.65928 15.89638 3618 ft 154 kts 356°
2026-04-08 17:50 38.66998 15.89622 3623 ft 154 kts 356°
2026-04-08 17:51 38.68072 15.89601 3622 ft 154 kts 355°
2026-04-08 17:51 38.69133 15.89480 3617 ft 153 kts 347°
2026-04-08 17:51 38.70147 15.89106 3621 ft 151 kts 336°
2026-04-08 17:51 38.71084 15.88504 3621 ft 150 kts 328°
2026-04-08 17:52 38.71941 15.87757 3622 ft 148 kts 323°
2026-04-08 17:52 38.72753 15.86952 3614 ft 147 kts 321°
2026-04-08 17:52 38.73565 15.86149 3620 ft 147 kts 323°
2026-04-08 17:52 38.74407 15.85406 3619 ft 147 kts 327°
2026-04-08 17:53 38.75293 15.84752 3621 ft 147 kts 331°
2026-04-08 17:53 38.76218 15.84184 3619 ft 147 kts 334°
2026-04-08 17:53 38.77162 15.83681 3619 ft 147 kts 336°
2026-04-08 17:53 38.78119 15.83213 3617 ft 147 kts 337°
2026-04-08 17:54 38.79079 15.82743 3618 ft 148 kts 336°
2026-04-08 17:54 38.80032 15.82248 3622 ft 148 kts 335°
2026-04-08 17:54 38.80974 15.81714 3621 ft 148 kts 333°
2026-04-08 17:54 38.81899 15.81140 3621 ft 148 kts 332°
2026-04-08 17:55 38.82813 15.80537 3624 ft 148 kts 331°
2026-04-08 17:55 38.83724 15.79920 3621 ft 148 kts 330°
2026-04-08 17:55 38.84638 15.79364 3619 ft 148 kts 338°
2026-04-08 17:55 38.85641 15.79079 3620 ft 149 kts 351°
2026-04-08 17:56 38.86679 15.79144 3617 ft 151 kts
2026-04-08 17:56 38.87698 15.79501 3619 ft 153 kts 14°
2026-04-08 17:56 38.88691 15.80026 3616 ft 155 kts 18°
2026-04-08 17:56 38.89684 15.80590 3621 ft 156 kts 17°
2026-04-08 17:57 38.90697 15.81089 3623 ft 156 kts 13°
2026-04-08 17:57 38.91735 15.81468 3621 ft 155 kts
2026-04-08 17:57 38.92789 15.81706 3621 ft 154 kts
2026-04-08 17:57 38.93850 15.81819 3620 ft 152 kts 358°
2026-04-08 17:58 38.94902 15.81857 3621 ft 150 kts 356°
2026-04-08 17:58 38.95942 15.81873 3615 ft 149 kts 356°
2026-04-08 17:58 38.96983 15.81916 3620 ft 150 kts 358°
2026-04-08 17:58 38.98020 15.82010 3624 ft 150 kts
2026-04-08 17:59 38.99010 15.82163 3630 ft 139 kts
2026-04-08 17:59 38.99948 15.82375 3618 ft 137 kts
2026-04-08 17:59 39.00901 15.82251 3594 ft 135 kts 346°
2026-04-08 17:59 39.01511 15.82135 3715 ft 128 kts 348°
2026-04-08 18:00 39.02411 15.82046 3644 ft 133 kts 355°
2026-04-08 18:00 39.03383 15.82165 3584 ft 144 kts
2026-04-08 18:00 39.04359 15.82422 3613 ft 148 kts
2026-04-08 18:00 39.05376 15.82330 3617 ft 147 kts 345°
2026-04-08 18:01 39.06386 15.82165 3628 ft 147 kts 354°
2026-04-08 18:01 39.07415 15.82235 3629 ft 149 kts
2026-04-08 18:01 39.08447 15.82445 3627 ft 151 kts
2026-04-08 18:01 39.09486 15.82694 3628 ft 152 kts
2026-04-08 18:02 39.10531 15.82907 3629 ft 152 kts
2026-04-08 18:02 39.11583 15.83026 3625 ft 151 kts 358°
2026-04-08 18:02 39.12630 15.83038 3621 ft 150 kts 354°
2026-04-08 18:02 39.13670 15.82959 3625 ft 149 kts 351°
2026-04-08 18:03 39.14704 15.82826 3629 ft 149 kts 350°
2026-04-08 18:03 39.15737 15.82679 3624 ft 150 kts 350°
2026-04-08 18:03 39.16773 15.82551 3635 ft 150 kts 352°
2026-04-08 18:03 39.17818 15.82470 3631 ft 151 kts 353°
2026-04-08 18:04 39.18868 15.82438 3626 ft 151 kts 355°
2026-04-08 18:04 39.19916 15.82435 3624 ft 150 kts 356°
2026-04-08 18:04 39.20963 15.82447 3623 ft 151 kts 356°
2026-04-08 18:04 39.22013 15.82464 3622 ft 151 kts 356°
2026-04-08 18:05 39.23063 15.82472 3629 ft 151 kts 356°
2026-04-08 18:05 39.24112 15.82469 3626 ft 151 kts 355°
2026-04-08 18:05 39.25163 15.82455 3629 ft 151 kts 354°
2026-04-08 18:05 39.26211 15.82424 3626 ft 150 kts 354°
2026-04-08 18:06 39.27258 15.82377 3629 ft 151 kts 353°
2026-04-08 18:06 39.28305 15.82320 3629 ft 151 kts 353°
2026-04-08 18:06 39.29351 15.82269 3629 ft 151 kts 354°
2026-04-08 18:06 39.30401 15.82241 3625 ft 151 kts 355°
2026-04-08 18:07 39.31454 15.82227 3629 ft 151 kts 355°
2026-04-08 18:07 39.32504 15.82214 3626 ft 151 kts 355°
2026-04-08 18:07 39.33556 15.82194 3619 ft 151 kts 354°
2026-04-08 18:07 39.34604 15.82164 3628 ft 150 kts 354°
2026-04-08 18:08 39.35653 15.82132 3627 ft 150 kts 354°
2026-04-08 18:08 39.36697 15.82102 3621 ft 150 kts 354°
2026-04-08 18:08 39.37742 15.82073 3626 ft 150 kts 354°
2026-04-08 18:08 39.38789 15.82046 3623 ft 151 kts 354°
2026-04-08 18:09 39.39847 15.82015 3620 ft 152 kts 354°
2026-04-08 18:09 39.40907 15.81986 3623 ft 152 kts 355°
2026-04-08 18:09 39.41965 15.81962 3623 ft 152 kts 355°
2026-04-08 18:09 39.43007 15.81940 3625 ft 152 kts 355°
2026-04-08 18:10 39.44061 15.81916 3616 ft 151 kts 355°
2026-04-08 18:10 39.45128 15.81889 3625 ft 151 kts 355°
2026-04-08 18:10 39.46182 15.81862 3626 ft 151 kts 354°
2026-04-08 18:10 39.47236 15.81835 3619 ft 152 kts 354°
2026-04-08 18:11 39.48294 15.81804 3626 ft 152 kts 354°
2026-04-08 18:11 39.49337 15.81771 3622 ft 152 kts 355°
2026-04-08 18:11 39.50391 15.81746 3612 ft 153 kts 355°
2026-04-08 18:11 39.51448 15.81767 3547 ft 148 kts 358°
2026-04-08 18:12 39.52444 15.81847 3282 ft 142 kts 359°
2026-04-08 18:12 39.53416 15.81922 3018 ft 137 kts 358°
2026-04-08 18:12 39.54367 15.81989 2714 ft 137 kts 359°
2026-04-08 18:12 39.55301 15.82021 2580 ft 132 kts 358°
2026-04-08 18:13 39.56227 15.82067 2649 ft 134 kts 358°
2026-04-08 18:13 39.57165 15.82079 2717 ft 134 kts 357°
2026-04-08 18:13 39.58094 15.82090 2806 ft 134 kts 357°
2026-04-08 18:13 39.59046 15.82091 2800 ft 138 kts 355°
2026-04-08 18:14 39.59994 15.82048 2755 ft 128 kts 354°
2026-04-08 18:14 39.60867 15.82011 2500 ft 124 kts 355°
2026-04-08 18:14 39.61732 15.81974 2258 ft 125 kts 354°
2026-04-08 18:14 39.62602 15.81891 2027 ft 126 kts 353°
2026-04-08 18:15 39.63474 15.81779 1793 ft 126 kts 355°
2026-04-08 18:15 39.64347 15.81710 1586 ft 125 kts 355°
2026-04-08 18:15 39.65210 15.81618 1393 ft 123 kts 353°
2026-04-08 18:15 39.66088 15.81510 1233 ft 133 kts 353°
2026-04-08 18:16 39.67030 15.81365 1184 ft 137 kts 351°
2026-04-08 18:16 39.68960 15.81084 1112 ft 140 kts 354°
2026-04-08 18:16 39.69936 15.80981 1069 ft 142 kts 355°
2026-04-08 18:17 39.70926 15.80860 1013 ft 143 kts 354°
2026-04-08 18:17 39.71907 15.80735 1000 ft 142 kts 354°
2026-04-08 18:17 39.72893 15.80631 1080 ft 141 kts 356°
2026-04-08 18:17 39.73885 15.80556 1114 ft 147 kts 357°
2026-04-08 18:18 39.74918 15.80572 1117 ft 150 kts
2026-04-08 18:18 39.75977 15.80636 1097 ft 153 kts
2026-04-08 18:18 39.76971 15.80667 1061 ft 126 kts 358°
2026-04-08 18:18 39.77727 15.80433 1095 ft 106 kts 330°
2026-04-08 18:19 39.78194 15.79800 977 ft 89 kts 297°
2026-04-08 18:19 39.78250 15.78373 796 ft 72 kts 237°
2026-04-08 18:19 39.77791 15.78223 703 ft 72 kts 152°
2026-04-08 18:20 39.77583 15.78806 555 ft 80 kts 85°
2026-04-08 18:20 39.77577 15.79504 270 ft 76 kts 105°
2026-04-08 18:20 39.77611 15.80177 34 ft 72 kts 89°
2026-04-08 18:20 39.77616 15.80702 27 ft 43 kts 90°
2026-04-08 18:21 39.77623 15.80998 31 ft 25 kts 89°
2026-04-08 18:21 39.77623 15.81245 39 ft 30 kts 90°
2026-04-08 18:21 39.77626 15.81500 42 ft 27 kts 91°
2026-04-08 18:21 39.77627 15.81751 47 ft 21 kts 89°
2026-04-08 18:22 39.77653 15.81910 47 ft 17 kts 44°
2026-04-08 18:22 39.77714 15.82011 47 ft 10 kts 91°
2026-04-08 18:22 39.77738 15.82095 48 ft 8 kts 330°
2026-04-08 18:22 39.77741 15.82087 48 ft 0 kts 263°